sensor_id;sensor_type;location;lat;lon;timestamp;P1;durP1;ratioP1;P2;durP2;ratioP2
2129;SDS011;1071;52.544;13.374;2024-02-26T00:01:42;18.15;;;12.88;;
2129;SDS011;1071;52.544;13.374;2024-02-26T00:04:11;18.40;;;12.40;;
2129;SDS011;1071;52.544;13.374;2024-02-26T00:06:47;15.52;;;11.80;;
2129;SDS011;1071;52.544;13.374;2024-02-26T00:09:15;15.00;;;12.30;;
2129;SDS011;1071;52.544;13.374;2024-02-26T00:11:42;15.25;;;11.30;;
2129;SDS011;1071;52.544;13.374;2024-02-26T00:14:13;16.17;;;11.75;;
2129;SDS011;1071;52.544;13.374;2024-02-26T00:16:48;11.95;;;10.70;;
2129;SDS011;1071;52.544;13.374;2024-02-26T00:19:15;12.80;;;10.25;;
2129;SDS011;1071;52.544;13.374;2024-02-26T00:21:55;16.85;;;11.05;;
2129;SDS011;1071;52.544;13.374;2024-02-26T00:24:46;10.98;;;9.85;;
2129;SDS011;1071;52.544;13.374;2024-02-26T00:27:44;12.88;;;10.77;;
2129;SDS011;1071;52.544;13.374;2024-02-26T00:30:33;10.88;;;9.77;;
2129;SDS011;1071;52.544;13.374;2024-02-26T00:33:02;17.83;;;11.48;;
2129;SDS011;1071;52.544;13.374;2024-02-26T00:41:38;14.70;;;13.05;;
2129;SDS011;1071;52.544;13.374;2024-02-26T00:44:40;14.48;;;12.85;;
2129;SDS011;1071;52.544;13.374;2024-02-26T00:47:47;14.23;;;10.98;;
2129;SDS011;1071;52.544;13.374;2024-02-26T00:50:16;14.45;;;12.13;;
2129;SDS011;1071;52.544;13.374;2024-02-26T00:52:43;14.50;;;11.85;;
2129;SDS011;1071;52.544;13.374;2024-02-26T00:55:10;15.13;;;12.13;;
2129;SDS011;1071;52.544;13.374;2024-02-26T00:57:38;13.05;;;11.77;;
2129;SDS011;1071;52.544;13.374;2024-02-26T01:00:06;13.77;;;11.70;;
2129;SDS011;1071;52.544;13.374;2024-02-26T01:02:37;13.25;;;11.95;;
2129;SDS011;1071;52.544;13.374;2024-02-26T01:05:07;12.43;;;11.13;;
2129;SDS011;1071;52.544;13.374;2024-02-26T01:07:36;13.77;;;10.60;;
2129;SDS011;1071;52.544;13.374;2024-02-26T01:10:03;13.90;;;11.63;;
2129;SDS011;1071;52.544;13.374;2024-02-26T01:12:32;13.52;;;12.13;;
2129;SDS011;1071;52.544;13.374;2024-02-26T01:15:00;12.75;;;11.00;;
2129;SDS011;1071;52.544;13.374;2024-02-26T01:17:27;12.45;;;10.82;;
2129;SDS011;1071;52.544;13.374;2024-02-26T01:19:54;12.52;;;11.23;;
2129;SDS011;1071;52.544;13.374;2024-02-26T01:22:21;12.95;;;11.57;;
2129;SDS011;1071;52.544;13.374;2024-02-26T01:24:50;12.25;;;10.95;;
2129;SDS011;1071;52.544;13.374;2024-02-26T01:27:17;12.40;;;10.77;;
2129;SDS011;1071;52.544;13.374;2024-02-26T01:29:51;12.10;;;10.90;;
2129;SDS011;1071;52.544;13.374;2024-02-26T01:32:18;12.98;;;10.55;;
2129;SDS011;1071;52.544;13.374;2024-02-26T01:34:46;12.38;;;10.85;;
2129;SDS011;1071;52.544;13.374;2024-02-26T01:37:13;11.65;;;10.35;;
2129;SDS011;1071;52.544;13.374;2024-02-26T01:39:40;11.43;;;10.05;;
2129;SDS011;1071;52.544;13.374;2024-02-26T01:42:08;11.98;;;10.70;;
2129;SDS011;1071;52.544;13.374;2024-02-26T01:44:35;11.90;;;10.50;;
2129;SDS011;1071;52.544;13.374;2024-02-26T01:47:03;12.60;;;10.07;;
2129;SDS011;1071;52.544;13.374;2024-02-26T01:49:31;13.55;;;11.02;;
2129;SDS011;1071;52.544;13.374;2024-02-26T01:51:58;14.73;;;10.10;;
2129;SDS011;1071;52.544;13.374;2024-02-26T01:54:25;12.82;;;11.07;;
2129;SDS011;1071;52.544;13.374;2024-02-26T01:56:52;14.48;;;11.95;;
2129;SDS011;1071;52.544;13.374;2024-02-26T01:59:21;13.85;;;11.77;;
2129;SDS011;1071;52.544;13.374;2024-02-26T02:01:50;12.80;;;11.40;;
2129;SDS011;1071;52.544;13.374;2024-02-26T02:04:21;13.57;;;11.45;;
2129;SDS011;1071;52.544;13.374;2024-02-26T02:06:58;13.82;;;11.05;;
2129;SDS011;1071;52.544;13.374;2024-02-26T02:09:28;13.20;;;9.95;;
2129;SDS011;1071;52.544;13.374;2024-02-26T02:11:55;13.93;;;10.25;;
2129;SDS011;1071;52.544;13.374;2024-02-26T02:14:24;11.07;;;9.98;;
2129;SDS011;1071;52.544;13.374;2024-02-26T02:16:51;12.43;;;10.60;;
2129;SDS011;1071;52.544;13.374;2024-02-26T02:19:18;10.48;;;9.48;;
2129;SDS011;1071;52.544;13.374;2024-02-26T02:21:47;10.80;;;9.63;;
2129;SDS011;1071;52.544;13.374;2024-02-26T02:24:14;9.50;;;8.60;;
2129;SDS011;1071;52.544;13.374;2024-02-26T02:26:42;12.02;;;9.43;;
2129;SDS011;1071;52.544;13.374;2024-02-26T02:29:09;8.88;;;7.95;;
2129;SDS011;1071;52.544;13.374;2024-02-26T02:31:37;10.30;;;7.93;;
2129;SDS011;1071;52.544;13.374;2024-02-26T02:34:05;8.45;;;7.72;;
2129;SDS011;1071;52.544;13.374;2024-02-26T02:36:32;8.13;;;7.00;;
2129;SDS011;1071;52.544;13.374;2024-02-26T02:39:01;6.88;;;6.20;;
2129;SDS011;1071;52.544;13.374;2024-02-26T02:41:28;7.22;;;6.63;;
2129;SDS011;1071;52.544;13.374;2024-02-26T02:43:56;7.20;;;6.55;;
2129;SDS011;1071;52.544;13.374;2024-02-26T02:46:23;7.65;;;6.80;;
2129;SDS011;1071;52.544;13.374;2024-02-26T02:48:50;8.30;;;7.07;;
2129;SDS011;1071;52.544;13.374;2024-02-26T02:51:18;6.22;;;5.63;;
2129;SDS011;1071;52.544;13.374;2024-02-26T02:53:45;8.15;;;6.40;;
2129;SDS011;1071;52.544;13.374;2024-02-26T02:56:13;7.70;;;6.10;;
2129;SDS011;1071;52.544;13.374;2024-02-26T02:58:41;6.85;;;6.15;;
2129;SDS011;1071;52.544;13.374;2024-02-26T03:01:08;7.35;;;6.68;;
2129;SDS011;1071;52.544;13.374;2024-02-26T03:03:35;7.13;;;6.00;;
2129;SDS011;1071;52.544;13.374;2024-02-26T03:06:03;8.40;;;6.43;;
2129;SDS011;1071;52.544;13.374;2024-02-26T03:08:30;8.30;;;6.80;;
2129;SDS011;1071;52.544;13.374;2024-02-26T03:10:58;6.90;;;6.25;;
2129;SDS011;1071;52.544;13.374;2024-02-26T03:13:26;7.30;;;6.70;;
2129;SDS011;1071;52.544;13.374;2024-02-26T03:15:53;12.82;;;6.80;;
2129;SDS011;1071;52.544;13.374;2024-02-26T03:18:20;6.57;;;5.90;;
2129;SDS011;1071;52.544;13.374;2024-02-26T03:20:48;7.97;;;6.50;;
2129;SDS011;1071;52.544;13.374;2024-02-26T03:23:15;7.80;;;5.82;;
2129;SDS011;1071;52.544;13.374;2024-02-26T03:25:44;7.85;;;6.85;;
2129;SDS011;1071;52.544;13.374;2024-02-26T03:28:12;6.60;;;6.10;;
2129;SDS011;1071;52.544;13.374;2024-02-26T03:30:42;7.60;;;6.78;;
2129;SDS011;1071;52.544;13.374;2024-02-26T03:33:09;7.60;;;7.00;;
2129;SDS011;1071;52.544;13.374;2024-02-26T03:35:36;6.43;;;5.82;;
2129;SDS011;1071;52.544;13.374;2024-02-26T03:38:03;7.72;;;7.03;;
2129;SDS011;1071;52.544;13.374;2024-02-26T03:40:30;6.78;;;6.18;;
2129;SDS011;1071;52.544;13.374;2024-02-26T03:42:57;7.43;;;6.72;;
2129;SDS011;1071;52.544;13.374;2024-02-26T03:45:24;7.47;;;6.75;;
2129;SDS011;1071;52.544;13.374;2024-02-26T03:47:55;7.22;;;6.55;;
2129;SDS011;1071;52.544;13.374;2024-02-26T03:50:22;7.53;;;6.75;;
2129;SDS011;1071;52.544;13.374;2024-02-26T03:52:51;8.05;;;6.80;;
2129;SDS011;1071;52.544;13.374;2024-02-26T03:55:19;7.63;;;6.95;;
2129;SDS011;1071;52.544;13.374;2024-02-26T03:57:49;7.55;;;6.60;;
2129;SDS011;1071;52.544;13.374;2024-02-26T04:00:17;8.63;;;7.82;;
2129;SDS011;1071;52.544;13.374;2024-02-26T04:02:46;7.88;;;7.18;;
2129;SDS011;1071;52.544;13.374;2024-02-26T04:05:16;6.72;;;6.07;;
2129;SDS011;1071;52.544;13.374;2024-02-26T04:07:43;6.70;;;6.10;;
2129;SDS011;1071;52.544;13.374;2024-02-26T04:10:10;7.53;;;5.45;;
2129;SDS011;1071;52.544;13.374;2024-02-26T04:12:38;7.30;;;6.32;;
2129;SDS011;1071;52.544;13.374;2024-02-26T04:15:07;9.02;;;6.05;;
2129;SDS011;1071;52.544;13.374;2024-02-26T04:17:35;7.50;;;6.78;;
2129;SDS011;1071;52.544;13.374;2024-02-26T04:20:03;6.80;;;6.10;;
2129;SDS011;1071;52.544;13.374;2024-02-26T04:22:33;7.53;;;6.03;;
2129;SDS011;1071;52.544;13.374;2024-02-26T04:25:00;10.18;;;7.68;;
2129;SDS011;1071;52.544;13.374;2024-02-26T04:27:28;6.95;;;6.32;;
2129;SDS011;1071;52.544;13.374;2024-02-26T04:29:55;6.47;;;5.85;;
2129;SDS011;1071;52.544;13.374;2024-02-26T04:32:23;7.85;;;5.97;;
2129;SDS011;1071;52.544;13.374;2024-02-26T04:34:50;7.07;;;6.38;;
2129;SDS011;1071;52.544;13.374;2024-02-26T04:37:19;7.00;;;6.40;;
2129;SDS011;1071;52.544;13.374;2024-02-26T04:39:57;7.00;;;6.30;;
2129;SDS011;1071;52.544;13.374;2024-02-26T04:42:24;6.88;;;6.25;;
2129;SDS011;1071;52.544;13.374;2024-02-26T04:44:51;7.22;;;6.60;;
2129;SDS011;1071;52.544;13.374;2024-02-26T04:47:18;7.43;;;6.72;;
2129;SDS011;1071;52.544;13.374;2024-02-26T04:49:47;7.55;;;6.85;;
2129;SDS011;1071;52.544;13.374;2024-02-26T04:52:14;8.35;;;7.63;;
2129;SDS011;1071;52.544;13.374;2024-02-26T04:54:41;8.27;;;6.75;;
2129;SDS011;1071;52.544;13.374;2024-02-26T04:57:09;10.07;;;8.63;;
2129;SDS011;1071;52.544;13.374;2024-02-26T04:59:36;7.38;;;6.75;;
2129;SDS011;1071;52.544;13.374;2024-02-26T05:02:03;8.90;;;8.00;;
2129;SDS011;1071;52.544;13.374;2024-02-26T05:04:30;8.10;;;6.20;;
2129;SDS011;1071;52.544;13.374;2024-02-26T05:06:57;7.60;;;6.80;;
2129;SDS011;1071;52.544;13.374;2024-02-26T05:09:24;6.97;;;6.32;;
2129;SDS011;1071;52.544;13.374;2024-02-26T05:11:51;7.38;;;6.68;;
2129;SDS011;1071;52.544;13.374;2024-02-26T05:14:19;7.82;;;7.07;;
2129;SDS011;1071;52.544;13.374;2024-02-26T05:16:47;8.13;;;7.38;;
2129;SDS011;1071;52.544;13.374;2024-02-26T05:19:14;11.13;;;7.97;;
2129;SDS011;1071;52.544;13.374;2024-02-26T05:21:48;8.80;;;8.00;;
2129;SDS011;1071;52.544;13.374;2024-02-26T05:24:40;8.50;;;7.43;;
2129;SDS011;1071;52.544;13.374;2024-02-26T05:27:07;8.60;;;7.72;;
2129;SDS011;1071;52.544;13.374;2024-02-26T05:29:40;8.50;;;7.70;;
2129;SDS011;1071;52.544;13.374;2024-02-26T05:32:11;12.68;;;8.68;;
2129;SDS011;1071;52.544;13.374;2024-02-26T05:34:39;10.00;;;9.00;;
2129;SDS011;1071;52.544;13.374;2024-02-26T05:37:07;9.45;;;8.20;;
2129;SDS011;1071;52.544;13.374;2024-02-26T05:39:34;8.73;;;7.82;;
2129;SDS011;1071;52.544;13.374;2024-02-26T05:42:01;10.57;;;9.00;;
2129;SDS011;1071;52.544;13.374;2024-02-26T05:44:28;9.25;;;8.32;;
2129;SDS011;1071;52.544;13.374;2024-02-26T05:46:58;9.20;;;8.35;;
2129;SDS011;1071;52.544;13.374;2024-02-26T05:49:25;9.07;;;8.25;;
2129;SDS011;1071;52.544;13.374;2024-02-26T05:51:52;10.55;;;8.68;;
2129;SDS011;1071;52.544;13.374;2024-02-26T05:54:19;9.95;;;9.02;;
2129;SDS011;1071;52.544;13.374;2024-02-26T05:56:48;9.93;;;9.02;;
2129;SDS011;1071;52.544;13.374;2024-02-26T05:59:15;10.75;;;9.20;;
2129;SDS011;1071;52.544;13.374;2024-02-26T06:01:43;12.00;;;9.80;;
2129;SDS011;1071;52.544;13.374;2024-02-26T06:04:14;10.50;;;9.40;;
2129;SDS011;1071;52.544;13.374;2024-02-26T06:06:42;9.70;;;8.80;;
2129;SDS011;1071;52.544;13.374;2024-02-26T06:09:10;10.02;;;8.98;;
2129;SDS011;1071;52.544;13.374;2024-02-26T06:11:38;10.98;;;9.88;;
2129;SDS011;1071;52.544;13.374;2024-02-26T06:14:05;15.00;;;11.50;;
2129;SDS011;1071;52.544;13.374;2024-02-26T06:16:34;17.02;;;10.85;;
2129;SDS011;1071;52.544;13.374;2024-02-26T06:19:01;14.07;;;11.48;;
2129;SDS011;1071;52.544;13.374;2024-02-26T06:21:30;13.50;;;10.40;;
2129;SDS011;1071;52.544;13.374;2024-02-26T06:23:58;12.23;;;10.65;;
2129;SDS011;1071;52.544;13.374;2024-02-26T06:26:28;17.52;;;11.32;;
2129;SDS011;1071;52.544;13.374;2024-02-26T06:29:09;11.32;;;10.18;;
2129;SDS011;1071;52.544;13.374;2024-02-26T06:31:36;14.75;;;10.90;;
2129;SDS011;1071;52.544;13.374;2024-02-26T06:34:03;11.73;;;10.52;;
2129;SDS011;1071;52.544;13.374;2024-02-26T06:36:34;13.52;;;10.23;;
2129;SDS011;1071;52.544;13.374;2024-02-26T06:39:32;11.50;;;10.40;;
2129;SDS011;1071;52.544;13.374;2024-02-26T06:41:59;12.48;;;11.20;;
2129;SDS011;1071;52.544;13.374;2024-02-26T06:44:28;12.88;;;11.55;;
2129;SDS011;1071;52.544;13.374;2024-02-26T06:46:57;12.20;;;10.20;;
2129;SDS011;1071;52.544;13.374;2024-02-26T06:52:27;12.85;;;11.35;;
2129;SDS011;1071;52.544;13.374;2024-02-26T06:54:54;13.73;;;12.13;;
2129;SDS011;1071;52.544;13.374;2024-02-26T06:57:21;14.35;;;12.10;;
2129;SDS011;1071;52.544;13.374;2024-02-26T06:59:51;16.92;;;12.77;;
2129;SDS011;1071;52.544;13.374;2024-02-26T07:02:23;12.60;;;10.95;;
2129;SDS011;1071;52.544;13.374;2024-02-26T07:04:53;13.30;;;11.07;;
2129;SDS011;1071;52.544;13.374;2024-02-26T07:07:23;15.30;;;11.20;;
2129;SDS011;1071;52.544;13.374;2024-02-26T07:09:56;12.95;;;11.65;;
2129;SDS011;1071;52.544;13.374;2024-02-26T07:12:23;15.48;;;13.27;;
2129;SDS011;1071;52.544;13.374;2024-02-26T07:14:52;16.10;;;13.73;;
2129;SDS011;1071;52.544;13.374;2024-02-26T07:17:19;13.20;;;11.93;;
2129;SDS011;1071;52.544;13.374;2024-02-26T07:19:46;15.43;;;12.98;;
2129;SDS011;1071;52.544;13.374;2024-02-26T07:22:13;15.27;;;12.65;;
2129;SDS011;1071;52.544;13.374;2024-02-26T07:24:43;17.60;;;14.48;;
2129;SDS011;1071;52.544;13.374;2024-02-26T07:27:11;14.15;;;12.85;;
2129;SDS011;1071;52.544;13.374;2024-02-26T07:29:38;17.65;;;12.48;;
2129;SDS011;1071;52.544;13.374;2024-02-26T07:32:08;14.15;;;11.55;;
2129;SDS011;1071;52.544;13.374;2024-02-26T07:34:35;14.43;;;12.40;;
2129;SDS011;1071;52.544;13.374;2024-02-26T07:37:06;15.05;;;13.13;;
2129;SDS011;1071;52.544;13.374;2024-02-26T07:39:33;14.13;;;11.93;;
2129;SDS011;1071;52.544;13.374;2024-02-26T07:42:00;14.48;;;12.60;;
2129;SDS011;1071;52.544;13.374;2024-02-26T07:44:29;15.98;;;13.27;;
2129;SDS011;1071;52.544;13.374;2024-02-26T07:46:56;14.10;;;12.60;;
2129;SDS011;1071;52.544;13.374;2024-02-26T07:49:24;15.80;;;14.30;;
2129;SDS011;1071;52.544;13.374;2024-02-26T07:51:51;15.68;;;13.73;;
2129;SDS011;1071;52.544;13.374;2024-02-26T07:54:19;18.95;;;14.30;;
2129;SDS011;1071;52.544;13.374;2024-02-26T07:56:49;15.40;;;13.90;;
2129;SDS011;1071;52.544;13.374;2024-02-26T07:59:16;15.32;;;13.73;;
2129;SDS011;1071;52.544;13.374;2024-02-26T08:01:50;14.45;;;12.25;;
2129;SDS011;1071;52.544;13.374;2024-02-26T08:04:17;16.95;;;14.30;;
2129;SDS011;1071;52.544;13.374;2024-02-26T08:06:46;17.73;;;14.75;;
2129;SDS011;1071;52.544;13.374;2024-02-26T08:09:14;15.00;;;13.25;;
2129;SDS011;1071;52.544;13.374;2024-02-26T08:11:41;15.10;;;13.45;;
2129;SDS011;1071;52.544;13.374;2024-02-26T08:14:08;13.95;;;12.65;;
2129;SDS011;1071;52.544;13.374;2024-02-26T08:16:35;15.85;;;13.15;;
2129;SDS011;1071;52.544;13.374;2024-02-26T08:19:05;17.65;;;15.23;;
2129;SDS011;1071;52.544;13.374;2024-02-26T08:21:38;16.00;;;14.32;;
2129;SDS011;1071;52.544;13.374;2024-02-26T08:24:08;14.20;;;12.70;;
2129;SDS011;1071;52.544;13.374;2024-02-26T08:26:39;16.83;;;14.95;;
2129;SDS011;1071;52.544;13.374;2024-02-26T08:29:06;18.83;;;15.40;;
2129;SDS011;1071;52.544;13.374;2024-02-26T08:31:33;16.35;;;14.73;;
2129;SDS011;1071;52.544;13.374;2024-02-26T08:34:05;17.15;;;15.25;;
2129;SDS011;1071;52.544;13.374;2024-02-26T08:36:38;15.30;;;13.43;;
2129;SDS011;1071;52.544;13.374;2024-02-26T08:39:08;13.88;;;12.48;;
2129;SDS011;1071;52.544;13.374;2024-02-26T08:41:35;14.23;;;12.82;;
2129;SDS011;1071;52.544;13.374;2024-02-26T08:44:03;16.08;;;14.38;;
2129;SDS011;1071;52.544;13.374;2024-02-26T08:46:30;18.45;;;14.55;;
2129;SDS011;1071;52.544;13.374;2024-02-26T08:48:57;15.63;;;14.05;;
2129;SDS011;1071;52.544;13.374;2024-02-26T08:51:26;17.98;;;13.60;;
2129;SDS011;1071;52.544;13.374;2024-02-26T08:53:53;16.00;;;14.40;;
2129;SDS011;1071;52.544;13.374;2024-02-26T08:56:20;17.35;;;14.57;;
2129;SDS011;1071;52.544;13.374;2024-02-26T08:58:47;19.38;;;14.20;;
2129;SDS011;1071;52.544;13.374;2024-02-26T09:01:21;17.30;;;14.63;;
2129;SDS011;1071;52.544;13.374;2024-02-26T09:03:48;16.35;;;14.43;;
2129;SDS011;1071;52.544;13.374;2024-02-26T09:06:15;17.15;;;14.95;;
2129;SDS011;1071;52.544;13.374;2024-02-26T09:08:43;15.43;;;13.40;;
2129;SDS011;1071;52.544;13.374;2024-02-26T09:11:10;17.90;;;14.82;;
2129;SDS011;1071;52.544;13.374;2024-02-26T09:13:43;15.65;;;14.00;;
2129;SDS011;1071;52.544;13.374;2024-02-26T09:16:11;18.13;;;14.38;;
2129;SDS011;1071;52.544;13.374;2024-02-26T09:18:38;15.90;;;14.38;;
2129;SDS011;1071;52.544;13.374;2024-02-26T09:21:48;21.33;;;15.15;;
2129;SDS011;1071;52.544;13.374;2024-02-26T09:24:11;15.65;;;14.05;;
2129;SDS011;1071;52.544;13.374;2024-02-26T09:26:42;18.33;;;14.63;;
2129;SDS011;1071;52.544;13.374;2024-02-26T09:29:12;14.73;;;13.32;;
2129;SDS011;1071;52.544;13.374;2024-02-26T09:31:40;16.50;;;14.02;;
2129;SDS011;1071;52.544;13.374;2024-02-26T09:34:07;17.58;;;14.25;;
2129;SDS011;1071;52.544;13.374;2024-02-26T09:36:43;15.27;;;13.70;;
2129;SDS011;1071;52.544;13.374;2024-02-26T09:39:12;15.38;;;13.77;;
2129;SDS011;1071;52.544;13.374;2024-02-26T09:41:39;17.38;;;15.30;;
2129;SDS011;1071;52.544;13.374;2024-02-26T09:44:07;15.40;;;13.80;;
2129;SDS011;1071;52.544;13.374;2024-02-26T09:46:39;16.02;;;13.35;;
2129;SDS011;1071;52.544;13.374;2024-02-26T09:49:08;15.55;;;13.93;;
2129;SDS011;1071;52.544;13.374;2024-02-26T09:51:35;15.57;;;13.75;;
2129;SDS011;1071;52.544;13.374;2024-02-26T09:54:03;15.90;;;14.30;;
2129;SDS011;1071;52.544;13.374;2024-02-26T09:56:36;13.48;;;12.13;;
2129;SDS011;1071;52.544;13.374;2024-02-26T09:59:10;16.00;;;14.50;;
2129;SDS011;1071;52.544;13.374;2024-02-26T10:02:01;15.50;;;13.80;;
2129;SDS011;1071;52.544;13.374;2024-02-26T10:04:29;15.50;;;14.05;;
2129;SDS011;1071;52.544;13.374;2024-02-26T10:06:57;17.40;;;13.68;;
2129;SDS011;1071;52.544;13.374;2024-02-26T10:09:26;13.88;;;12.48;;
2129;SDS011;1071;52.544;13.374;2024-02-26T10:11:55;15.23;;;13.60;;
2129;SDS011;1071;52.544;13.374;2024-02-26T10:14:22;15.45;;;13.18;;
2129;SDS011;1071;52.544;13.374;2024-02-26T10:16:53;15.45;;;13.55;;
2129;SDS011;1071;52.544;13.374;2024-02-26T10:19:26;13.85;;;12.45;;
2129;SDS011;1071;52.544;13.374;2024-02-26T10:21:55;13.32;;;11.95;;
2129;SDS011;1071;52.544;13.374;2024-02-26T10:24:23;13.27;;;11.98;;
2129;SDS011;1071;52.544;13.374;2024-02-26T10:26:51;14.32;;;12.00;;
2129;SDS011;1071;52.544;13.374;2024-02-26T10:29:29;13.63;;;12.15;;
2129;SDS011;1071;52.544;13.374;2024-02-26T10:31:56;13.93;;;12.43;;
2129;SDS011;1071;52.544;13.374;2024-02-26T10:34:23;14.98;;;11.35;;
2129;SDS011;1071;52.544;13.374;2024-02-26T10:36:53;12.90;;;11.60;;
2129;SDS011;1071;52.544;13.374;2024-02-26T10:39:23;18.15;;;11.38;;
2129;SDS011;1071;52.544;13.374;2024-02-26T10:41:53;13.55;;;12.18;;
2129;SDS011;1071;52.544;13.374;2024-02-26T10:44:20;15.48;;;11.95;;
2129;SDS011;1071;52.544;13.374;2024-02-26T10:46:53;12.02;;;10.82;;
2129;SDS011;1071;52.544;13.374;2024-02-26T10:49:24;10.43;;;9.32;;
2129;SDS011;1071;52.544;13.374;2024-02-26T10:51:56;14.95;;;11.15;;
2129;SDS011;1071;52.544;13.374;2024-02-26T10:54:26;11.27;;;10.18;;
2129;SDS011;1071;52.544;13.374;2024-02-26T10:56:56;10.80;;;9.48;;
2129;SDS011;1071;52.544;13.374;2024-02-26T10:59:30;11.73;;;10.57;;
2129;SDS011;1071;52.544;13.374;2024-02-26T11:02:04;12.43;;;9.90;;
2129;SDS011;1071;52.544;13.374;2024-02-26T11:04:34;10.60;;;9.60;;
2129;SDS011;1071;52.544;13.374;2024-02-26T11:07:06;12.48;;;10.00;;
2129;SDS011;1071;52.544;13.374;2024-02-26T11:09:39;10.93;;;10.02;;
2129;SDS011;1071;52.544;13.374;2024-02-26T11:12:11;10.48;;;9.48;;
2129;SDS011;1071;52.544;13.374;2024-02-26T11:14:42;10.57;;;9.52;;
2129;SDS011;1071;52.544;13.374;2024-02-26T11:17:21;10.60;;;9.70;;
2129;SDS011;1071;52.544;13.374;2024-02-26T11:19:50;10.82;;;9.20;;
2129;SDS011;1071;52.544;13.374;2024-02-26T11:22:19;11.38;;;10.23;;
2129;SDS011;1071;52.544;13.374;2024-02-26T11:24:47;11.32;;;10.10;;
2129;SDS011;1071;52.544;13.374;2024-02-26T11:27:21;10.27;;;9.15;;
2129;SDS011;1071;52.544;13.374;2024-02-26T11:29:55;10.43;;;9.43;;
2129;SDS011;1071;52.544;13.374;2024-02-26T11:32:45;10.95;;;9.88;;
2129;SDS011;1071;52.544;13.374;2024-02-26T11:35:13;12.75;;;9.68;;
2129;SDS011;1071;52.544;13.374;2024-02-26T11:37:50;11.35;;;10.25;;
2129;SDS011;1071;52.544;13.374;2024-02-26T11:40:32;11.45;;;10.30;;
2129;SDS011;1071;52.544;13.374;2024-02-26T11:43:00;13.07;;;11.60;;
2129;SDS011;1071;52.544;13.374;2024-02-26T11:51:45;14.75;;;12.15;;
2129;SDS011;1071;52.544;13.374;2024-02-26T11:57:38;12.80;;;11.55;;
2129;SDS011;1071;52.544;13.374;2024-02-26T12:00:12;14.20;;;11.10;;
2129;SDS011;1071;52.544;13.374;2024-02-26T12:05:50;13.07;;;11.77;;
2129;SDS011;1071;52.544;13.374;2024-02-26T12:08:19;12.17;;;10.87;;
2129;SDS011;1071;52.544;13.374;2024-02-26T12:10:48;16.13;;;12.50;;
2129;SDS011;1071;52.544;13.374;2024-02-26T12:13:21;13.80;;;11.90;;
2129;SDS011;1071;52.544;13.374;2024-02-26T12:15:57;11.75;;;10.60;;
2129;SDS011;1071;52.544;13.374;2024-02-26T12:18:24;13.52;;;12.23;;
2129;SDS011;1071;52.544;13.374;2024-02-26T12:20:57;12.98;;;9.55;;
2129;SDS011;1071;52.544;13.374;2024-02-26T12:23:32;13.35;;;12.05;;
2129;SDS011;1071;52.544;13.374;2024-02-26T12:26:00;14.00;;;12.33;;
2129;SDS011;1071;52.544;13.374;2024-02-26T12:28:47;12.65;;;10.63;;
2129;SDS011;1071;52.544;13.374;2024-02-26T12:31:17;12.57;;;11.13;;
2129;SDS011;1071;52.544;13.374;2024-02-26T12:33:50;11.43;;;10.23;;
2129;SDS011;1071;52.544;13.374;2024-02-26T12:36:18;11.63;;;10.43;;
2129;SDS011;1071;52.544;13.374;2024-02-26T12:38:46;10.82;;;9.82;;
2129;SDS011;1071;52.544;13.374;2024-02-26T12:41:14;10.87;;;9.77;;
2129;SDS011;1071;52.544;13.374;2024-02-26T12:43:41;12.23;;;10.60;;
2129;SDS011;1071;52.544;13.374;2024-02-26T12:46:15;10.73;;;9.73;;
2129;SDS011;1071;52.544;13.374;2024-02-26T12:48:43;11.98;;;9.85;;
2129;SDS011;1071;52.544;13.374;2024-02-26T12:51:11;12.25;;;9.75;;
2129;SDS011;1071;52.544;13.374;2024-02-26T12:53:38;8.73;;;7.87;;
2129;SDS011;1071;52.544;13.374;2024-02-26T12:56:10;9.43;;;8.30;;
2129;SDS011;1071;52.544;13.374;2024-02-26T12:58:40;9.63;;;8.73;;
2129;SDS011;1071;52.544;13.374;2024-02-26T13:01:13;9.10;;;8.18;;
2129;SDS011;1071;52.544;13.374;2024-02-26T13:03:41;9.00;;;8.03;;
2129;SDS011;1071;52.544;13.374;2024-02-26T13:06:12;8.93;;;8.13;;
2129;SDS011;1071;52.544;13.374;2024-02-26T13:08:39;8.43;;;7.63;;
2129;SDS011;1071;52.544;13.374;2024-02-26T13:11:11;11.37;;;8.33;;
2129;SDS011;1071;52.544;13.374;2024-02-26T13:13:38;10.33;;;8.60;;
2129;SDS011;1071;52.544;13.374;2024-02-26T13:16:05;8.37;;;7.23;;
2129;SDS011;1071;52.544;13.374;2024-02-26T13:18:36;7.05;;;6.35;;
2129;SDS011;1071;52.544;13.374;2024-02-26T13:21:10;7.87;;;7.10;;
2129;SDS011;1071;52.544;13.374;2024-02-26T13:23:40;9.40;;;7.00;;
2129;SDS011;1071;52.544;13.374;2024-02-26T13:26:41;7.17;;;6.50;;
2129;SDS011;1071;52.544;13.374;2024-02-26T13:29:08;6.97;;;5.00;;
2129;SDS011;1071;52.544;13.374;2024-02-26T13:31:38;6.80;;;5.70;;
2129;SDS011;1071;52.544;13.374;2024-02-26T13:34:05;6.30;;;5.70;;
2129;SDS011;1071;52.544;13.374;2024-02-26T13:36:34;6.83;;;5.70;;
2129;SDS011;1071;52.544;13.374;2024-02-26T13:39:01;5.63;;;4.90;;
2129;SDS011;1071;52.544;13.374;2024-02-26T13:41:30;4.93;;;4.53;;
2129;SDS011;1071;52.544;13.374;2024-02-26T13:44:02;4.90;;;4.50;;
2129;SDS011;1071;52.544;13.374;2024-02-26T13:46:31;4.93;;;4.53;;
2129;SDS011;1071;52.544;13.374;2024-02-26T13:48:58;5.10;;;4.70;;
2129;SDS011;1071;52.544;13.374;2024-02-26T13:51:26;6.73;;;4.40;;
2129;SDS011;1071;52.544;13.374;2024-02-26T13:53:54;5.10;;;4.60;;
2129;SDS011;1071;52.544;13.374;2024-02-26T13:56:21;5.10;;;4.37;;
2129;SDS011;1071;52.544;13.374;2024-02-26T13:58:48;4.60;;;4.20;;
2129;SDS011;1071;52.544;13.374;2024-02-26T14:01:18;7.00;;;4.45;;
2129;SDS011;1071;52.544;13.374;2024-02-26T14:03:45;5.55;;;4.13;;
2129;SDS011;1071;52.544;13.374;2024-02-26T14:06:14;5.90;;;4.57;;
2129;SDS011;1071;52.544;13.374;2024-02-26T14:08:41;5.90;;;5.30;;
2129;SDS011;1071;52.544;13.374;2024-02-26T14:11:13;4.37;;;3.83;;
2129;SDS011;1071;52.544;13.374;2024-02-26T14:13:40;5.07;;;4.67;;
2129;SDS011;1071;52.544;13.374;2024-02-26T14:16:07;4.80;;;4.30;;
2129;SDS011;1071;52.544;13.374;2024-02-26T14:18:39;6.50;;;4.97;;
2129;SDS011;1071;52.544;13.374;2024-02-26T14:21:09;4.77;;;4.37;;
2129;SDS011;1071;52.544;13.374;2024-02-26T14:23:36;6.80;;;5.57;;
2129;SDS011;1071;52.544;13.374;2024-02-26T14:26:07;6.07;;;5.50;;
2129;SDS011;1071;52.544;13.374;2024-02-26T14:28:37;6.18;;;5.40;;
2129;SDS011;1071;52.544;13.374;2024-02-26T14:31:06;7.23;;;6.03;;
2129;SDS011;1071;52.544;13.374;2024-02-26T14:33:38;7.83;;;6.03;;
2129;SDS011;1071;52.544;13.374;2024-02-26T14:36:11;7.40;;;6.40;;
2129;SDS011;1071;52.544;13.374;2024-02-26T14:38:40;6.37;;;5.77;;
2129;SDS011;1071;52.544;13.374;2024-02-26T14:41:12;11.37;;;7.70;;
2129;SDS011;1071;52.544;13.374;2024-02-26T14:43:39;7.00;;;6.30;;
2129;SDS011;1071;52.544;13.374;2024-02-26T14:46:08;7.67;;;7.00;;
2129;SDS011;1071;52.544;13.374;2024-02-26T14:48:53;7.30;;;6.20;;
2129;SDS011;1071;52.544;13.374;2024-02-26T14:51:23;6.37;;;5.80;;
2129;SDS011;1071;52.544;13.374;2024-02-26T14:53:50;8.00;;;5.97;;
2129;SDS011;1071;52.544;13.374;2024-02-26T14:56:18;7.60;;;6.90;;
2129;SDS011;1071;52.544;13.374;2024-02-26T14:58:50;7.17;;;6.43;;
2129;SDS011;1071;52.544;13.374;2024-02-26T15:02:38;9.17;;;8.27;;
2129;SDS011;1071;52.544;13.374;2024-02-26T15:04:58;8.10;;;7.30;;
2129;SDS011;1071;52.544;13.374;2024-02-26T15:07:25;6.87;;;6.17;;
2129;SDS011;1071;52.544;13.374;2024-02-26T15:09:52;8.00;;;7.20;;
2129;SDS011;1071;52.544;13.374;2024-02-26T15:12:24;7.30;;;6.25;;
2129;SDS011;1071;52.544;13.374;2024-02-26T15:14:53;8.53;;;7.30;;
2129;SDS011;1071;52.544;13.374;2024-02-26T15:17:22;7.47;;;6.72;;
2129;SDS011;1071;52.544;13.374;2024-02-26T15:19:52;7.55;;;6.82;;
2129;SDS011;1071;52.544;13.374;2024-02-26T15:22:26;9.38;;;8.48;;
2129;SDS011;1071;52.544;13.374;2024-02-26T15:24:56;10.40;;;9.48;;